Daihatsumaru — JD2764 — position and weather

sailwx.info

Track history (hours):
 
Tides and Currents Weather Stations Pressure Air Temp Water Temp Dewpoint Dewpoint Depression Visibility Wind Speed Wind Dir Waves Ship Positions

Daihatsumaru

Last reported at 2016-May-25 18:33 UTC. Time now 2016-May-25 18:56 UTC.
Position N 34°36' E 135°03'.

Length 106 m; draft 4.5 m.

Type: Cargo ship. MMSI: 431000701.

Date/timePositionNaut miles runAvg speedWind from/ knotsBaromVisibWave heightAir tempDewpointWater temp
2016-May-25 18:33N 34°36' E 135°03'9 0.2
2016-May-24 04:28N 34°35' E 134°52'1212.8
2016-May-24 03:33N 34°36' E 135°06'1414.1
2016-May-24 02:33N 34°40' E 135°22'1 1.1
2016-May-24 01:24N 34°41' E 135°23'0 0.0
2016-May-24 00:30N 34°41' E 135°23'0 0.0
2016-May-23 23:12N 34°41' E 135°23'0 0.0
2016-May-23 22:24N 34°41' E 135°23'0 0.0
2016-May-23 21:24N 34°41' E 135°23'0 0.0
2016-May-23 20:30N 34°41' E 135°23'0 0.0
2016-May-23 19:30N 34°41' E 135°23'0 0.0
2016-May-23 18:30N 34°41' E 135°23'0 0.0
2016-May-23 17:30N 34°41' E 135°23'0 0.0
2016-May-23 16:30N 34°41' E 135°23'0 0.0
2016-May-23 15:30N 34°41' E 135°23'0 0.0
2016-May-23 14:30N 34°41' E 135°23'0 0.0
2016-May-23 13:18N 34°41' E 135°23'0 0.0
2016-May-23 12:30N 34°41' E 135°23'0 0.0
2016-May-23 11:30N 34°41' E 135°23'0 0.0
2016-May-23 10:30N 34°41' E 135°23'0 0.0
2016-May-23 09:30N 34°41' E 135°23'0 0.0
2016-May-23 08:24N 34°41' E 135°23'0 0.0
2016-May-23 07:24N 34°41' E 135°23'0 0.0
2016-May-23 06:30N 34°41' E 135°23'0 0.0
2016-May-23 05:30N 34°41' E 135°23'0 0.0
2016-May-23 04:30N 34°41' E 135°23'0 0.0
2016-May-23 03:30N 34°41' E 135°23'0 0.0
2016-May-23 02:24N 34°41' E 135°23'0 0.0
2016-May-23 01:30N 34°41' E 135°23'0 0.0
2016-May-23 00:30N 34°41' E 135°23'0 0.0
2016-May-22 23:30N 34°41' E 135°23'0 0.0
2016-May-22 22:30N 34°41' E 135°23'0 0.0
2016-May-22 21:30N 34°41' E 135°23'0 0.0
2016-May-22 20:30N 34°41' E 135°23'0 0.0
2016-May-22 19:30N 34°41' E 135°23'0 0.0
2016-May-22 18:30N 34°41' E 135°23'0 0.0
2016-May-22 17:24N 34°41' E 135°23'0 0.0
2016-May-22 16:30N 34°41' E 135°23'0 0.0
2016-May-22 15:30N 34°41' E 135°23'0 0.0
2016-May-22 14:18N 34°41' E 135°23'0 0.0
2016-May-22 13:30N 34°41' E 135°23'0 0.0
2016-May-22 12:30N 34°41' E 135°23'0 0.0
2016-May-22 11:30N 34°41' E 135°23'0 0.0
2016-May-22 10:24N 34°41' E 135°23'0 0.0
2016-May-22 09:24N 34°41' E 135°23'0 0.0
2016-May-22 08:30N 34°41' E 135°23'0 0.0
2016-May-22 07:30N 34°41' E 135°23'0 0.0
2016-May-22 06:30N 34°41' E 135°23'0 0.0
2016-May-22 05:30N 34°41' E 135°23'0 0.0
2016-May-22 04:30N 34°41' E 135°23'0 0.0
2016-May-22 03:30N 34°41' E 135°23'0 0.0
2016-May-22 02:30N 34°41' E 135°23'0 0.0
2016-May-22 01:30N 34°41' E 135°23'0 0.0
2016-May-22 00:30N 34°41' E 135°23'0 0.0
2016-May-21 23:30N 34°41' E 135°23'0 0.0
2016-May-21 22:33N 34°41' E 135°23'2 2.1
2016-May-21 21:30N 34°40' E 135°21'0 0.1
2016-May-21 20:30N 34°40' E 135°21'0 0.0
2016-May-21 19:30N 34°40' E 135°21'2 2.3
2016-May-21 18:33N 34°38' E 135°19'1413.6
2016-May-21 17:33N 34°36' E 135°03'4 0.1
2016-May-20 04:32N 34°38' E 134°59'1312.8
2016-May-20 03:34N 34°37' E 135°14'9 8.2
2016-May-20 02:31N 34°41' E 135°23'0 0.0
2016-May-20 01:31N 34°41' E 135°23'0 0.0
2016-May-20 00:31N 34°41' E 135°23'0 0.0
2016-May-19 23:31N 34°41' E 135°23'2 2.4
2016-May-19 22:33N 34°40' E 135°21'0 0.0
2016-May-19 21:33N 34°40' E 135°21'0 0.0
2016-May-19 20:33N 34°40' E 135°21'0 0.0
2016-May-19 19:21N 34°40' E 135°21'0 0.0
2016-May-19 18:21N 34°40' E 135°21'8 9.9
2016-May-19 17:34N 34°35' E 135°14'15 0.4
2016-May-18 04:32N 34°36' E 134°55'1212.4
2016-May-18 03:33N 34°36' E 135°10'12 9.6
2016-May-18 02:19N 34°41' E 135°23'0 0.0
2016-May-18 01:19N 34°41' E 135°23'0 0.1
2016-May-18 00:31N 34°41' E 135°23'0 0.0
2016-May-17 23:31N 34°41' E 135°23'3 2.5
2016-May-17 22:30N 34°40' E 135°21'0 0.1
2016-May-17 21:33N 34°40' E 135°21'0 0.0
2016-May-17 20:33N 34°40' E 135°21'0 0.0
2016-May-17 19:33N 34°40' E 135°21'0 0.0
2016-May-17 18:33N 34°40' E 135°21'5 4.6
2016-May-17 17:33N 34°36' E 135°17'1414.1
2016-May-17 16:32N 34°37' E 134°59'  
Track history (hours):
 
Tides and Currents Weather Stations Pressure Air Temp Water Temp Dewpoint Dewpoint Depression Visibility Wind Speed Wind Dir Waves Ship Positions

Daihatsumaru

Last reported at 2016-May-25 18:33 UTC. Time now 2016-May-25 18:56 UTC.
Position N 34°36' E 135°03'.

Length 106 m; draft 4.5 m.

Type: Cargo ship. MMSI: 431000701.

Date/timePositionNaut miles runAvg speedWind from/ knotsBaromVisibWave heightAir tempDewpointWater temp
2016-May-25 18:33N 34°36' E 135°03'9 0.2
2016-May-24 04:28N 34°35' E 134°52'1212.8
2016-May-24 03:33N 34°36' E 135°06'1414.1
2016-May-24 02:33N 34°40' E 135°22'1 1.1
2016-May-24 01:24N 34°41' E 135°23'0 0.0
2016-May-24 00:30N 34°41' E 135°23'0 0.0
2016-May-23 23:12N 34°41' E 135°23'0 0.0
2016-May-23 22:24N 34°41' E 135°23'0 0.0
2016-May-23 21:24N 34°41' E 135°23'0 0.0
2016-May-23 20:30N 34°41' E 135°23'0 0.0
2016-May-23 19:30N 34°41' E 135°23'0 0.0
2016-May-23 18:30N 34°41' E 135°23'0 0.0
2016-May-23 17:30N 34°41' E 135°23'0 0.0
2016-May-23 16:30N 34°41' E 135°23'0 0.0
2016-May-23 15:30N 34°41' E 135°23'0 0.0
2016-May-23 14:30N 34°41' E 135°23'0 0.0
2016-May-23 13:18N 34°41' E 135°23'0 0.0
2016-May-23 12:30N 34°41' E 135°23'0 0.0
2016-May-23 11:30N 34°41' E 135°23'0 0.0
2016-May-23 10:30N 34°41' E 135°23'0 0.0
2016-May-23 09:30N 34°41' E 135°23'0 0.0
2016-May-23 08:24N 34°41' E 135°23'0 0.0
2016-May-23 07:24N 34°41' E 135°23'0 0.0
2016-May-23 06:30N 34°41' E 135°23'0 0.0
2016-May-23 05:30N 34°41' E 135°23'0 0.0
2016-May-23 04:30N 34°41' E 135°23'0 0.0
2016-May-23 03:30N 34°41' E 135°23'0 0.0
2016-May-23 02:24N 34°41' E 135°23'0 0.0
2016-May-23 01:30N 34°41' E 135°23'0 0.0
2016-May-23 00:30N 34°41' E 135°23'0 0.0
2016-May-22 23:30N 34°41' E 135°23'0 0.0
2016-May-22 22:30N 34°41' E 135°23'0 0.0
2016-May-22 21:30N 34°41' E 135°23'0 0.0
2016-May-22 20:30N 34°41' E 135°23'0 0.0
2016-May-22 19:30N 34°41' E 135°23'0 0.0
2016-May-22 18:30N 34°41' E 135°23'0 0.0
2016-May-22 17:24N 34°41' E 135°23'0 0.0
2016-May-22 16:30N 34°41' E 135°23'0 0.0
2016-May-22 15:30N 34°41' E 135°23'0 0.0
2016-May-22 14:18N 34°41' E 135°23'0 0.0
2016-May-22 13:30N 34°41' E 135°23'0 0.0
2016-May-22 12:30N 34°41' E 135°23'0 0.0
2016-May-22 11:30N 34°41' E 135°23'0 0.0
2016-May-22 10:24N 34°41' E 135°23'0 0.0
2016-May-22 09:24N 34°41' E 135°23'0 0.0
2016-May-22 08:30N 34°41' E 135°23'0 0.0
2016-May-22 07:30N 34°41' E 135°23'0 0.0
2016-May-22 06:30N 34°41' E 135°23'0 0.0
2016-May-22 05:30N 34°41' E 135°23'0 0.0
2016-May-22 04:30N 34°41' E 135°23'0 0.0
2016-May-22 03:30N 34°41' E 135°23'0 0.0
2016-May-22 02:30N 34°41' E 135°23'0 0.0
2016-May-22 01:30N 34°41' E 135°23'0 0.0
2016-May-22 00:30N 34°41' E 135°23'0 0.0
2016-May-21 23:30N 34°41' E 135°23'0 0.0
2016-May-21 22:33N 34°41' E 135°23'2 2.1
2016-May-21 21:30N 34°40' E 135°21'0 0.1
2016-May-21 20:30N 34°40' E 135°21'0 0.0
2016-May-21 19:30N 34°40' E 135°21'2 2.3
2016-May-21 18:33N 34°38' E 135°19'1413.6
2016-May-21 17:33N 34°36' E 135°03'4 0.1
2016-May-20 04:32N 34°38' E 134°59'1312.8
2016-May-20 03:34N 34°37' E 135°14'9 8.2
2016-May-20 02:31N 34°41' E 135°23'0 0.0
2016-May-20 01:31N 34°41' E 135°23'0 0.0
2016-May-20 00:31N 34°41' E 135°23'0 0.0
2016-May-19 23:31N 34°41' E 135°23'2 2.4
2016-May-19 22:33N 34°40' E 135°21'0 0.0
2016-May-19 21:33N 34°40' E 135°21'0 0.0
2016-May-19 20:33N 34°40' E 135°21'0 0.0
2016-May-19 19:21N 34°40' E 135°21'0 0.0
2016-May-19 18:21N 34°40' E 135°21'8 9.9
2016-May-19 17:34N 34°35' E 135°14'15 0.4
2016-May-18 04:32N 34°36' E 134°55'1212.4
2016-May-18 03:33N 34°36' E 135°10'12 9.6
2016-May-18 02:19N 34°41' E 135°23'0 0.0
2016-May-18 01:19N 34°41' E 135°23'0 0.1
2016-May-18 00:31N 34°41' E 135°23'0 0.0
2016-May-17 23:31N 34°41' E 135°23'3 2.5
2016-May-17 22:30N 34°40' E 135°21'0 0.1
2016-May-17 21:33N 34°40' E 135°21'0 0.0
2016-May-17 20:33N 34°40' E 135°21'0 0.0
2016-May-17 19:33N 34°40' E 135°21'0 0.0
2016-May-17 18:33N 34°40' E 135°21'5 4.6
2016-May-17 17:33N 34°36' E 135°17'1414.1
2016-May-17 16:32N 34°37' E 134°59'  

Dump ship's entire track history